createdAt,value
2019-06-20T00:01:02.606Z,583
2019-06-20T00:02:09.847Z,583
2019-06-20T00:03:17.088Z,584
2019-06-20T00:04:24.310Z,585
2019-06-20T00:05:31.553Z,586
2019-06-20T00:06:38.808Z,587
2019-06-20T00:07:46.034Z,587
2019-06-20T00:08:53.248Z,587
2019-06-20T00:10:00.480Z,586
2019-06-20T00:11:07.707Z,587
2019-06-20T00:12:14.933Z,587
2019-06-20T00:13:21.876Z,587
2019-06-20T00:14:29.110Z,586
2019-06-20T00:15:36.326Z,587
2019-06-20T00:16:43.563Z,587
2019-06-20T00:17:50.782Z,587
2019-06-20T00:18:58.058Z,587
2019-06-20T00:20:05.026Z,587
2019-06-20T00:21:12.040Z,586
2019-06-20T00:22:18.976Z,586
2019-06-20T00:23:25.960Z,586
2019-06-20T00:24:33.259Z,586
2019-06-20T00:25:40.501Z,586
2019-06-20T00:26:47.717Z,586
2019-06-20T00:27:54.949Z,586
2019-06-20T00:29:02.202Z,587
2019-06-20T00:30:09.154Z,588
2019-06-20T00:31:16.427Z,589
2019-06-20T00:32:23.656Z,589
2019-06-20T00:33:30.871Z,590
2019-06-20T00:34:37.834Z,590
2019-06-20T00:35:45.056Z,592
2019-06-20T00:36:52.702Z,591
2019-06-20T00:37:59.906Z,591
2019-06-20T00:39:07.153Z,591
2019-06-20T00:40:14.377Z,592
2019-06-20T00:41:21.621Z,591
2019-06-20T00:42:28.837Z,590
2019-06-20T00:43:35.791Z,591
2019-06-20T00:44:43.010Z,591
2019-06-20T00:45:49.963Z,592
2019-06-20T00:46:56.910Z,592
2019-06-20T00:48:04.196Z,592
2019-06-20T00:49:11.427Z,593
2019-06-20T00:50:18.682Z,594
2019-06-20T00:51:26.021Z,594
2019-06-20T00:52:33.254Z,595
2019-06-20T00:53:40.456Z,593
2019-06-20T00:54:47.693Z,593
2019-06-20T00:55:54.906Z,594
2019-06-20T00:57:02.209Z,601
2019-06-20T00:58:09.487Z,598
2019-06-20T00:59:16.712Z,592
2019-06-20T01:00:23.941Z,591
2019-06-20T01:01:31.169Z,591
2019-06-20T01:02:38.388Z,589
2019-06-20T01:03:45.638Z,589
2019-06-20T01:04:52.853Z,589
2019-06-20T01:05:59.809Z,589
2019-06-20T01:07:06.797Z,589
2019-06-20T01:08:14.028Z,589
2019-06-20T01:09:21.238Z,589
2019-06-20T01:10:28.204Z,587
2019-06-20T01:11:35.439Z,588
2019-06-20T01:12:42.125Z,576
2019-06-20T01:13:48.789Z,558
2019-06-20T01:14:59.536Z,546
2019-06-20T01:16:06.783Z,502
2019-06-20T01:17:14.102Z,534
2019-06-20T01:18:21.397Z,541
2019-06-20T01:19:28.455Z,540
2019-06-20T01:20:35.663Z,553
2019-06-20T01:21:42.947Z,558
2019-06-20T01:22:49.891Z,557
2019-06-20T01:23:57.114Z,559
2019-06-20T01:25:04.356Z,556
2019-06-20T01:26:11.318Z,561
2019-06-20T01:27:18.541Z,556
2019-06-20T01:28:25.771Z,563
2019-06-20T01:29:32.973Z,565
2019-06-20T01:30:40.209Z,570
2019-06-20T01:31:47.149Z,566
2019-06-20T01:32:54.376Z,569
2019-06-20T01:34:01.323Z,568
2019-06-20T01:35:08.286Z,568
2019-06-20T01:36:15.228Z,568
2019-06-20T01:37:22.190Z,569
2019-06-20T01:38:29.402Z,569
2019-06-20T01:39:36.641Z,570
2019-06-20T01:40:43.851Z,561
2019-06-20T01:41:50.824Z,559
2019-06-20T01:42:58.034Z,575
2019-06-20T01:44:05.275Z,564
2019-06-20T01:45:12.491Z,568
2019-06-20T01:46:19.722Z,570
2019-06-20T01:47:26.950Z,572
2019-06-20T01:48:34.191Z,568
2019-06-20T01:49:41.409Z,570
2019-06-20T01:50:48.637Z,564
2019-06-20T01:51:55.913Z,568
2019-06-20T01:53:03.152Z,570
2019-06-20T01:54:10.375Z,568
2019-06-20T01:55:17.328Z,569
2019-06-20T01:56:24.553Z,565
2019-06-20T01:57:31.780Z,569
2019-06-20T01:58:39.005Z,569
2019-06-20T01:59:45.962Z,574
2019-06-20T02:00:53.207Z,573
2019-06-20T02:02:00.432Z,567
2019-06-20T02:03:07.645Z,558
2019-06-20T02:04:14.882Z,561
2019-06-20T02:05:22.118Z,570
2019-06-20T02:06:29.102Z,573
2019-06-20T02:07:36.062Z,571
2019-06-20T02:08:43.039Z,572
2019-06-20T02:09:50.299Z,572
2019-06-20T02:10:57.542Z,571
2019-06-20T02:12:04.725Z,571
2019-06-20T02:13:11.954Z,570
2019-06-20T02:14:19.160Z,571
2019-06-20T02:15:26.400Z,570
2019-06-20T02:16:33.354Z,569
2019-06-20T02:17:40.615Z,569
2019-06-20T02:18:47.578Z,568
2019-06-20T02:19:54.537Z,570
2019-06-20T02:21:01.760Z,568
2019-06-20T02:22:09.009Z,569
2019-06-20T02:23:16.216Z,569
2019-06-20T02:24:23.484Z,568
2019-06-20T02:25:30.160Z,568
2019-06-20T02:26:37.402Z,568
2019-06-20T02:27:44.615Z,568
2019-06-20T02:28:51.836Z,569
2019-06-20T02:29:58.796Z,569
2019-06-20T02:31:05.771Z,569
2019-06-20T02:32:12.726Z,568
2019-06-20T02:33:19.960Z,568
2019-06-20T02:34:27.167Z,569
2019-06-20T02:35:34.120Z,569
2019-06-20T02:36:41.334Z,568
2019-06-20T02:37:48.577Z,568
2019-06-20T02:38:55.526Z,569
2019-06-20T02:40:02.502Z,569
2019-06-20T02:41:09.726Z,568
2019-06-20T02:42:16.689Z,569
2019-06-20T02:43:23.368Z,569
2019-06-20T02:44:31.866Z,568
2019-06-20T02:45:38.823Z,568
2019-06-20T02:46:46.044Z,570
2019-06-20T02:47:53.274Z,569
2019-06-20T02:49:00.228Z,570
2019-06-20T02:50:07.167Z,569
2019-06-20T02:51:14.389Z,569
2019-06-20T02:52:21.326Z,570
2019-06-20T02:53:28.032Z,570
2019-06-20T02:54:35.274Z,569
2019-06-20T02:55:42.507Z,571
2019-06-20T02:56:49.752Z,570
2019-06-20T02:57:56.994Z,570
2019-06-20T02:59:04.357Z,571
2019-06-20T03:00:11.593Z,571
2019-06-20T03:01:18.800Z,570
2019-06-20T03:02:25.752Z,570
2019-06-20T03:03:32.971Z,571
2019-06-20T03:04:40.198Z,571
2019-06-20T03:05:47.151Z,570
2019-06-20T03:06:54.122Z,570
2019-06-20T03:08:01.073Z,570
2019-06-20T03:09:08.352Z,570
2019-06-20T03:10:15.582Z,571
2019-06-20T03:11:22.822Z,569
2019-06-20T03:12:30.039Z,570
2019-06-20T03:13:36.715Z,569
2019-06-20T03:14:46.833Z,570
2019-06-20T03:15:54.071Z,570
2019-06-20T03:17:01.025Z,571
2019-06-20T03:18:08.322Z,570
2019-06-20T03:19:15.543Z,570
2019-06-20T03:20:22.774Z,569
2019-06-20T03:21:29.999Z,570
2019-06-20T03:22:36.962Z,569
2019-06-20T03:23:43.928Z,569
2019-06-20T03:24:50.921Z,569
2019-06-20T03:25:58.183Z,568
2019-06-20T03:27:05.415Z,569
2019-06-20T03:28:12.643Z,568
2019-06-20T03:29:19.873Z,570
2019-06-20T03:30:26.806Z,568
2019-06-20T03:31:34.124Z,569
2019-06-20T03:32:41.348Z,568
2019-06-20T03:33:48.326Z,569
2019-06-20T03:34:55.539Z,569
2019-06-20T03:36:02.610Z,569
2019-06-20T03:37:09.829Z,569
2019-06-20T03:38:17.063Z,568
2019-06-20T03:39:24.271Z,568
2019-06-20T03:40:31.501Z,569
2019-06-20T03:41:38.715Z,568
2019-06-20T03:42:45.947Z,569
2019-06-20T03:43:53.190Z,568
2019-06-20T03:45:03.620Z,567
2019-06-20T03:46:10.831Z,569
2019-06-20T03:47:18.077Z,569
2019-06-20T03:48:25.299Z,570
2019-06-20T03:49:32.544Z,569
2019-06-20T03:50:39.755Z,569
2019-06-20T03:51:46.981Z,570
2019-06-20T03:52:54.202Z,570
2019-06-20T03:54:01.429Z,571
2019-06-20T03:55:08.648Z,571
2019-06-20T03:56:15.869Z,572
2019-06-20T03:57:23.079Z,571
2019-06-20T03:58:30.314Z,572
2019-06-20T03:59:37.531Z,572
2019-06-20T04:00:44.773Z,572
2019-06-20T04:01:51.794Z,572
2019-06-20T04:02:59.060Z,571
2019-06-20T04:04:06.277Z,571
2019-06-20T04:05:13.520Z,571
2019-06-20T04:06:20.735Z,571
2019-06-20T04:07:27.964Z,572
2019-06-20T04:08:34.910Z,571
2019-06-20T04:09:41.872Z,571
2019-06-20T04:10:49.100Z,572
2019-06-20T04:11:56.327Z,572
2019-06-20T04:13:03.267Z,573
2019-06-20T04:14:10.494Z,572
2019-06-20T04:15:20.555Z,572
2019-06-20T04:16:27.844Z,571
2019-06-20T04:17:35.059Z,572
2019-06-20T04:18:42.294Z,572
2019-06-20T04:19:49.513Z,573
2019-06-20T04:20:56.936Z,573
2019-06-20T04:22:04.192Z,572
2019-06-20T04:23:11.416Z,574
2019-06-20T04:24:18.650Z,573
2019-06-20T04:25:25.871Z,573
2019-06-20T04:26:33.087Z,574
2019-06-20T04:27:40.314Z,573
2019-06-20T04:28:47.536Z,574
2019-06-20T04:29:54.777Z,573
2019-06-20T04:31:01.991Z,574
2019-06-20T04:32:09.216Z,574
2019-06-20T04:33:16.432Z,575
2019-06-20T04:34:23.401Z,575
2019-06-20T04:35:30.628Z,575
2019-06-20T04:36:37.858Z,575
2019-06-20T04:37:45.074Z,575
2019-06-20T04:38:52.303Z,574
2019-06-20T04:39:59.547Z,576
2019-06-20T04:41:06.766Z,575
2019-06-20T04:42:13.983Z,575
2019-06-20T04:43:21.219Z,574
2019-06-20T04:44:28.445Z,574
2019-06-20T04:45:36.782Z,575
2019-06-20T04:46:44.012Z,575
2019-06-20T04:47:50.966Z,575
2019-06-20T04:48:58.405Z,574
2019-06-20T04:50:05.654Z,573
2019-06-20T04:51:12.863Z,574
2019-06-20T04:52:19.810Z,574
2019-06-20T04:53:26.758Z,575
2019-06-20T04:54:34.027Z,575
2019-06-20T04:55:41.251Z,576
2019-06-20T04:56:48.475Z,578
2019-06-20T04:57:55.698Z,578
2019-06-20T04:59:02.985Z,578
2019-06-20T05:00:10.292Z,580
2019-06-20T05:01:17.239Z,581
2019-06-20T05:02:24.705Z,582
2019-06-20T05:03:31.940Z,582
2019-06-20T05:04:39.151Z,583
2019-06-20T05:05:46.377Z,582
2019-06-20T05:06:53.593Z,584
2019-06-20T05:08:00.827Z,584
2019-06-20T05:09:08.034Z,585
2019-06-20T05:10:15.260Z,585
2019-06-20T05:11:22.220Z,585
2019-06-20T05:12:29.175Z,584
2019-06-20T05:13:36.397Z,582
2019-06-20T05:14:43.341Z,583
2019-06-20T05:15:54.185Z,582
2019-06-20T05:17:01.414Z,581
2019-06-20T05:18:08.632Z,578
2019-06-20T05:19:15.864Z,577
2019-06-20T05:20:23.354Z,575
2019-06-20T05:21:30.583Z,575
2019-06-20T05:22:37.527Z,573
2019-06-20T05:23:44.755Z,573
2019-06-20T05:24:51.974Z,572
2019-06-20T05:25:59.225Z,571
2019-06-20T05:27:06.431Z,572
2019-06-20T05:28:13.410Z,570
2019-06-20T05:29:20.640Z,570
2019-06-20T05:30:27.857Z,569
2019-06-20T05:31:35.080Z,569
2019-06-20T05:32:42.310Z,571
2019-06-20T05:33:49.525Z,571
2019-06-20T05:34:56.759Z,571
2019-06-20T05:36:03.969Z,573
2019-06-20T05:37:10.928Z,574
2019-06-20T05:38:18.140Z,572
2019-06-20T05:39:25.378Z,574
2019-06-20T05:40:36.239Z,573
2019-06-20T05:41:44.303Z,573
2019-06-20T05:42:51.517Z,574
2019-06-20T05:43:59.036Z,572
2019-06-20T05:45:06.000Z,571
2019-06-20T05:46:13.224Z,570
2019-06-20T05:47:20.173Z,570
2019-06-20T05:48:27.116Z,571
2019-06-20T05:49:34.335Z,570
2019-06-20T05:50:41.566Z,571
2019-06-20T05:51:48.504Z,572
2019-06-20T05:52:55.467Z,570
2019-06-20T05:54:02.684Z,570
2019-06-20T05:55:09.633Z,569
2019-06-20T05:56:16.583Z,570
2019-06-20T05:57:23.816Z,571
2019-06-20T05:58:31.058Z,571
2019-06-20T05:59:38.292Z,572
2019-06-20T06:00:45.567Z,572
2019-06-20T06:01:56.701Z,572
2019-06-20T06:03:07.948Z,572
2019-06-20T06:04:14.917Z,572
2019-06-20T06:05:21.903Z,571
2019-06-20T06:06:29.853Z,570
2019-06-20T06:07:37.171Z,570
2019-06-20T06:08:44.402Z,569
2019-06-20T06:09:51.626Z,570
2019-06-20T06:10:59.354Z,571
2019-06-20T06:12:06.581Z,571
2019-06-20T06:13:13.809Z,572
2019-06-20T06:14:21.022Z,572
2019-06-20T06:15:27.994Z,572
2019-06-20T06:16:34.947Z,571
2019-06-20T06:17:43.118Z,570
2019-06-20T06:18:50.339Z,570
2019-06-20T06:19:57.317Z,570
2019-06-20T06:21:04.559Z,571
2019-06-20T06:22:11.523Z,571
2019-06-20T06:23:18.478Z,572
2019-06-20T06:24:25.441Z,572
2019-06-20T06:25:32.426Z,571
2019-06-20T06:26:39.802Z,570
2019-06-20T06:27:46.550Z,569
2019-06-20T06:28:53.781Z,569
2019-06-20T06:30:01.005Z,568
2019-06-20T06:31:08.289Z,568
2019-06-20T06:32:15.510Z,566
2019-06-20T06:33:26.837Z,566
2019-06-20T06:34:34.065Z,568
2019-06-20T06:35:41.295Z,567
2019-06-20T06:36:48.558Z,567
2019-06-20T06:37:55.813Z,566
2019-06-20T06:39:03.029Z,565
2019-06-20T06:40:10.270Z,563
2019-06-20T06:41:17.478Z,564
2019-06-20T06:42:24.443Z,564
2019-06-20T06:43:31.661Z,564
2019-06-20T06:44:38.920Z,564
2019-06-20T06:45:45.870Z,565
2019-06-20T06:47:00.364Z,566
2019-06-20T06:48:07.319Z,566
2019-06-20T06:49:14.539Z,565
2019-06-20T06:50:21.767Z,565
2019-06-20T06:51:28.992Z,564
2019-06-20T06:52:36.257Z,564
2019-06-20T06:53:43.489Z,565
2019-06-20T06:54:50.454Z,563
2019-06-20T06:55:57.685Z,562
2019-06-20T06:57:04.906Z,562
2019-06-20T06:58:12.145Z,562
2019-06-20T06:59:19.357Z,561
2019-06-20T07:00:26.596Z,560
2019-06-20T07:01:33.813Z,559
2019-06-20T07:02:41.046Z,557
2019-06-20T07:03:48.462Z,557
2019-06-20T07:04:55.703Z,556
2019-06-20T07:06:03.041Z,556
2019-06-20T07:07:10.274Z,556
2019-06-20T07:08:17.507Z,556
2019-06-20T07:09:24.472Z,557
2019-06-20T07:10:31.690Z,557
2019-06-20T07:11:38.465Z,558
2019-06-20T07:12:45.722Z,557
2019-06-20T07:13:52.957Z,559
2019-06-20T07:15:00.220Z,559
2019-06-20T07:16:07.521Z,558
2019-06-20T07:17:14.758Z,556
2019-06-20T07:18:22.081Z,557
2019-06-20T07:19:29.299Z,558
2019-06-20T07:20:36.554Z,559
2019-06-20T07:21:43.780Z,559
2019-06-20T07:22:51.009Z,559
2019-06-20T07:23:58.285Z,561
2019-06-20T07:25:05.523Z,561
2019-06-20T07:26:12.742Z,561
2019-06-20T07:27:19.973Z,563
2019-06-20T07:28:27.233Z,563
2019-06-20T07:29:34.456Z,564
2019-06-20T07:30:41.670Z,565
2019-06-20T07:31:48.632Z,565
2019-06-20T07:32:55.852Z,565
2019-06-20T07:34:03.101Z,565
2019-06-20T07:35:10.304Z,565
2019-06-20T07:36:17.553Z,564
2019-06-20T07:37:24.786Z,564
2019-06-20T07:38:32.024Z,563
2019-06-20T07:39:39.250Z,562
2019-06-20T07:40:46.526Z,561
2019-06-20T07:41:53.741Z,559
2019-06-20T07:43:01.008Z,561
2019-06-20T07:44:08.270Z,561
2019-06-20T07:45:15.512Z,561
2019-06-20T07:46:22.741Z,561
2019-06-20T07:47:29.974Z,560
2019-06-20T07:48:37.207Z,561
2019-06-20T07:49:44.435Z,560
2019-06-20T07:50:51.658Z,560
2019-06-20T07:51:58.882Z,559
2019-06-20T07:53:06.092Z,557
2019-06-20T07:54:13.343Z,557
2019-06-20T07:55:20.574Z,557
2019-06-20T07:56:27.796Z,557
2019-06-20T07:57:35.017Z,558
2019-06-20T07:58:42.251Z,556
2019-06-20T07:59:49.485Z,556
2019-06-20T08:00:56.493Z,556
2019-06-20T08:02:03.205Z,555
2019-06-20T08:03:10.569Z,554
2019-06-20T08:04:17.802Z,553
2019-06-20T08:05:25.083Z,553
2019-06-20T08:06:32.316Z,553
2019-06-20T08:07:39.289Z,553
2019-06-20T08:08:46.233Z,552
2019-06-20T08:09:52.926Z,550
2019-06-20T08:11:00.219Z,548
2019-06-20T08:12:07.465Z,547
2019-06-20T08:13:14.747Z,547
2019-06-20T08:14:21.982Z,549
2019-06-20T08:15:29.232Z,551
2019-06-20T08:16:36.479Z,553
2019-06-20T08:17:43.947Z,554
2019-06-20T08:18:51.098Z,553
2019-06-20T08:19:58.338Z,553
2019-06-20T08:21:05.649Z,554
2019-06-20T08:22:12.878Z,554
2019-06-20T08:23:19.638Z,552
2019-06-20T08:24:26.591Z,550
2019-06-20T08:25:33.827Z,550
2019-06-20T08:26:41.045Z,552
2019-06-20T08:27:48.278Z,552
2019-06-20T08:29:21.847Z,552
2019-06-20T08:30:29.081Z,554
2019-06-20T08:31:36.338Z,553
2019-06-20T08:32:43.590Z,553
2019-06-20T08:33:50.824Z,553
2019-06-20T08:35:02.405Z,553
2019-06-20T08:36:11.224Z,552
2019-06-20T08:37:18.456Z,552
2019-06-20T08:38:25.675Z,553
2019-06-20T08:39:32.910Z,554
2019-06-20T08:40:40.147Z,553
2019-06-20T08:41:47.379Z,552
2019-06-20T08:42:58.439Z,551
2019-06-20T08:44:08.206Z,550
2019-06-20T08:45:15.432Z,548
2019-06-20T08:46:22.728Z,549
2019-06-20T08:47:29.951Z,550
2019-06-20T08:48:37.179Z,550
2019-06-20T08:49:44.412Z,551
2019-06-20T08:50:51.706Z,550
2019-06-20T08:51:59.722Z,550
2019-06-20T08:53:08.043Z,547
2019-06-20T08:54:15.251Z,547
2019-06-20T08:55:22.265Z,549
2019-06-20T08:56:29.479Z,544
2019-06-20T08:57:36.444Z,543
2019-06-20T08:58:43.688Z,541
2019-06-20T08:59:50.919Z,540
2019-06-20T09:02:14.101Z,548
2019-06-20T09:03:21.330Z,549
2019-06-20T09:04:28.598Z,546
2019-06-20T09:05:35.831Z,545
2019-06-20T09:06:42.796Z,546
2019-06-20T09:07:50.023Z,544
2019-06-20T09:09:00.004Z,544
2019-06-20T09:10:07.261Z,542
2019-06-20T09:11:14.491Z,544
2019-06-20T09:12:21.872Z,543
2019-06-20T09:13:29.131Z,545
2019-06-20T09:14:36.087Z,544
2019-06-20T09:15:43.312Z,544
2019-06-20T09:16:50.541Z,543
2019-06-20T09:17:59.209Z,546
2019-06-20T09:19:07.202Z,543
2019-06-20T09:20:14.445Z,545
2019-06-20T09:21:21.118Z,543
2019-06-20T09:22:28.067Z,545
2019-06-20T09:23:36.801Z,547
2019-06-20T09:24:43.768Z,546
2019-06-20T09:25:52.870Z,541
2019-06-20T09:27:00.340Z,545
2019-06-20T09:28:07.615Z,546
2019-06-20T09:29:14.577Z,543
2019-06-20T09:30:21.795Z,545
2019-06-20T09:31:29.029Z,548
2019-06-20T09:32:36.241Z,547
2019-06-20T09:33:43.193Z,546
2019-06-20T09:34:54.504Z,547
2019-06-20T09:36:04.969Z,546
2019-06-20T09:37:11.916Z,544
2019-06-20T09:38:19.162Z,544
2019-06-20T09:39:26.382Z,542
2019-06-20T09:40:33.604Z,544
2019-06-20T09:41:40.833Z,548
2019-06-20T09:42:48.097Z,548
2019-06-20T09:43:56.368Z,549
2019-06-20T09:45:03.937Z,547
2019-06-20T09:46:11.169Z,546
2019-06-20T09:47:18.418Z,542
2019-06-20T09:48:25.642Z,541
2019-06-20T09:49:32.586Z,541
2019-06-20T09:50:39.804Z,544
2019-06-20T09:51:48.566Z,546
2019-06-20T09:52:58.922Z,546
2019-06-20T09:54:06.146Z,546
2019-06-20T09:55:13.383Z,544
2019-06-20T09:56:20.629Z,539
2019-06-20T09:57:27.859Z,542
2019-06-20T09:58:35.107Z,542
2019-06-20T10:00:10.864Z,538
2019-06-20T10:01:18.385Z,533
2019-06-20T10:02:25.628Z,532
2019-06-20T10:03:32.917Z,538
2019-06-20T10:04:40.147Z,538
2019-06-20T10:05:52.401Z,542
2019-06-20T10:06:59.736Z,539
2019-06-20T10:08:06.986Z,539
2019-06-20T10:09:14.227Z,533
2019-06-20T10:10:21.525Z,525
2019-06-20T10:11:28.765Z,518
2019-06-20T10:12:36.004Z,522
2019-06-20T10:13:43.227Z,522
2019-06-20T10:14:56.060Z,520
2019-06-20T10:16:03.570Z,527
2019-06-20T10:17:10.871Z,522
2019-06-20T10:18:17.824Z,523
2019-06-20T10:19:25.059Z,524
2019-06-20T10:20:31.727Z,530
2019-06-20T10:21:38.709Z,531
2019-06-20T10:22:49.028Z,527
2019-06-20T10:23:57.731Z,527
2019-06-20T10:25:04.960Z,514
2019-06-20T10:26:11.921Z,513
2019-06-20T10:27:19.143Z,529
2019-06-20T10:28:26.084Z,539
2019-06-20T10:29:33.312Z,538
2019-06-20T10:30:40.550Z,524
2019-06-20T10:31:50.719Z,519
2019-06-20T10:32:58.755Z,524
2019-06-20T10:34:06.022Z,531
2019-06-20T10:35:12.980Z,529
2019-06-20T10:36:19.939Z,537
2019-06-20T10:37:27.171Z,523
2019-06-20T10:38:34.393Z,520
2019-06-20T10:39:41.630Z,518
2019-06-20T10:40:50.350Z,521
2019-06-20T10:41:58.800Z,524
2019-06-20T10:43:06.035Z,523
2019-06-20T10:44:12.733Z,529
2019-06-20T10:45:19.971Z,534
2019-06-20T10:46:26.977Z,531
2019-06-20T10:47:36.804Z,534
2019-06-20T10:48:46.417Z,528
2019-06-20T10:49:54.428Z,519
2019-06-20T10:51:01.671Z,515
2019-06-20T10:52:08.636Z,514
2019-06-20T10:53:15.872Z,517
2019-06-20T10:54:23.102Z,515
2019-06-20T10:55:30.063Z,512
2019-06-20T10:56:37.014Z,507
2019-06-20T10:57:46.712Z,508
2019-06-20T10:58:55.992Z,503
2019-06-20T11:00:03.251Z,513
2019-06-20T11:01:09.923Z,514
2019-06-20T11:02:16.883Z,512
2019-06-20T11:03:24.104Z,516
2019-06-20T11:04:31.323Z,512
2019-06-20T11:05:42.059Z,517
2019-06-20T11:06:50.681Z,536
2019-06-20T11:07:57.957Z,542
2019-06-20T11:09:04.956Z,542
2019-06-20T11:10:12.171Z,540
2019-06-20T11:11:19.135Z,535
2019-06-20T11:12:26.087Z,536
2019-06-20T11:13:32.750Z,541
2019-06-20T11:14:42.586Z,539
2019-06-20T11:15:50.916Z,533
2019-06-20T11:16:57.856Z,509
2019-06-20T11:18:05.109Z,505
2019-06-20T11:19:12.409Z,514
2019-06-20T11:20:19.657Z,509
2019-06-20T11:21:26.624Z,504
2019-06-20T11:22:33.842Z,496
2019-06-20T11:23:42.833Z,498
2019-06-20T11:24:50.231Z,497
2019-06-20T11:25:57.458Z,499
2019-06-20T11:27:04.698Z,503
2019-06-20T11:28:11.647Z,519
2019-06-20T11:29:18.887Z,526
2019-06-20T11:30:25.832Z,534
2019-06-20T11:31:33.058Z,537
2019-06-20T11:32:41.493Z,533
2019-06-20T11:33:49.400Z,532
2019-06-20T11:34:56.637Z,526
2019-06-20T11:36:03.854Z,529
2019-06-20T11:37:10.794Z,527
2019-06-20T11:38:18.138Z,528
2019-06-20T11:39:25.364Z,528
2019-06-20T11:40:32.591Z,526
2019-06-20T11:41:41.642Z,511
2019-06-20T11:42:48.906Z,497
2019-06-20T11:43:56.138Z,509
2019-06-20T11:45:03.375Z,517
2019-06-20T11:46:10.600Z,518
2019-06-20T11:47:21.021Z,515
2019-06-20T11:48:28.253Z,514
2019-06-20T11:49:38.149Z,519
2019-06-20T11:50:46.509Z,532
2019-06-20T11:51:53.833Z,537
2019-06-20T11:53:00.775Z,534
2019-06-20T11:54:08.022Z,529
2019-06-20T11:55:15.255Z,517
2019-06-20T11:56:22.509Z,521
2019-06-20T11:57:29.738Z,531
2019-06-20T11:58:36.958Z,537
2019-06-20T11:59:43.917Z,537
2019-06-20T12:01:04.772Z,538
2019-06-20T12:02:12.045Z,536
2019-06-20T12:03:19.031Z,538
2019-06-20T12:04:26.300Z,511
2019-06-20T12:05:33.607Z,496
2019-06-20T12:06:44.660Z,486
2019-06-20T12:07:52.278Z,509
2019-06-20T12:08:59.507Z,502
2019-06-20T12:10:06.756Z,498
2019-06-20T12:11:13.713Z,512
2019-06-20T12:12:20.968Z,519
2019-06-20T12:13:28.192Z,530
2019-06-20T12:14:35.437Z,532
2019-06-20T12:15:44.905Z,536
2019-06-20T12:16:53.357Z,543
2019-06-20T12:18:00.583Z,546
2019-06-20T12:19:07.540Z,548
2019-06-20T12:20:14.776Z,549
2019-06-20T12:21:22.020Z,548
2019-06-20T12:22:28.972Z,548
2019-06-20T12:23:35.657Z,543
2019-06-20T12:24:45.049Z,533
2019-06-20T12:25:53.469Z,513
2019-06-20T12:27:00.696Z,520
2019-06-20T12:28:07.667Z,529
2019-06-20T12:29:14.912Z,534
2019-06-20T12:30:22.155Z,534
2019-06-20T12:31:29.370Z,532
2019-06-20T12:32:36.626Z,529
2019-06-20T12:33:45.081Z,507
2019-06-20T12:34:52.415Z,491
2019-06-20T12:35:59.646Z,477
2019-06-20T12:37:06.906Z,483
2019-06-20T12:38:16.181Z,484
2019-06-20T12:39:23.420Z,508
2019-06-20T12:40:30.641Z,515
2019-06-20T12:41:38.710Z,522
2019-06-20T12:42:49.272Z,524
2019-06-20T12:43:56.641Z,523
2019-06-20T12:45:03.859Z,520
2019-06-20T12:46:10.818Z,517
2019-06-20T12:47:17.776Z,525
2019-06-20T12:48:25.017Z,529
2019-06-20T12:49:32.248Z,536
2019-06-20T12:50:43.039Z,540
2019-06-20T12:51:50.690Z,543
2019-06-20T12:52:57.912Z,543
2019-06-20T12:54:05.142Z,543
2019-06-20T12:55:12.388Z,545
2019-06-20T12:56:19.629Z,544
2019-06-20T12:57:26.878Z,545
2019-06-20T12:58:33.840Z,545
2019-06-20T12:59:46.233Z,549
2019-06-20T13:00:54.968Z,550
2019-06-20T13:02:02.204Z,551
2019-06-20T13:03:09.475Z,551
2019-06-20T13:04:16.712Z,552
2019-06-20T13:05:23.933Z,552
2019-06-20T13:06:31.173Z,552
2019-06-20T13:07:42.333Z,552
2019-06-20T13:08:51.025Z,551
2019-06-20T13:09:58.246Z,552
2019-06-20T13:11:05.502Z,552
2019-06-20T13:12:12.726Z,552
2019-06-20T13:13:19.964Z,553
2019-06-20T13:14:27.206Z,552
2019-06-20T13:15:34.440Z,554
2019-06-20T13:16:42.772Z,553
2019-06-20T13:17:50.474Z,553
2019-06-20T13:18:57.413Z,553
2019-06-20T13:20:04.733Z,554
2019-06-20T13:21:11.951Z,553
2019-06-20T13:22:19.195Z,553
2019-06-20T13:23:26.427Z,553
2019-06-20T13:24:33.684Z,553
2019-06-20T13:25:44.461Z,554
2019-06-20T13:26:51.804Z,554
2019-06-20T13:28:00.541Z,555
2019-06-20T13:29:07.558Z,555
2019-06-20T13:30:14.792Z,555
2019-06-20T13:31:21.800Z,556
2019-06-20T13:32:29.022Z,555
2019-06-20T13:33:36.250Z,555
2019-06-20T13:34:48.844Z,556
2019-06-20T13:35:56.148Z,556
2019-06-20T13:37:03.095Z,557
2019-06-20T13:38:10.326Z,558
2019-06-20T13:39:17.583Z,574
2019-06-20T13:40:24.839Z,559
2019-06-20T13:41:32.052Z,537
2019-06-20T13:42:44.109Z,526
2019-06-20T13:43:52.925Z,549
2019-06-20T13:44:59.896Z,560
2019-06-20T13:46:07.138Z,551
2019-06-20T13:47:14.103Z,551
2019-06-20T13:48:21.061Z,549
2019-06-20T13:49:28.306Z,546
2019-06-20T13:50:35.556Z,544
2019-06-20T13:51:43.844Z,516
2019-06-20T13:52:52.627Z,521
2019-06-20T13:53:59.873Z,517
2019-06-20T13:55:07.130Z,527
2019-06-20T13:56:14.367Z,520
2019-06-20T13:57:21.326Z,536
2019-06-20T13:58:28.554Z,550
2019-06-20T13:59:35.823Z,554
2019-06-20T14:00:46.058Z,566
2019-06-20T14:02:07.478Z,548
2019-06-20T14:03:14.443Z,543
2019-06-20T14:04:21.703Z,543
2019-06-20T14:05:28.978Z,538
2019-06-20T14:06:36.299Z,536
2019-06-20T14:07:55.831Z,538
2019-06-20T14:09:03.210Z,534
2019-06-20T14:10:10.453Z,534
2019-06-20T14:11:17.726Z,530
2019-06-20T14:12:24.134Z,529
2019-06-20T14:13:31.351Z,525
2019-06-20T14:14:38.595Z,524
2019-06-20T14:15:48.444Z,523
2019-06-20T14:16:55.762Z,522
2019-06-20T14:18:03.023Z,523
2019-06-20T14:19:10.263Z,527
2019-06-20T14:20:17.490Z,533
2019-06-20T14:21:24.733Z,535
2019-06-20T14:22:31.935Z,537
2019-06-20T14:23:39.205Z,538
2019-06-20T14:24:50.732Z,536
2019-06-20T14:25:57.765Z,538
2019-06-20T14:27:06.528Z,536
2019-06-20T14:28:13.508Z,535
2019-06-20T14:29:20.746Z,537
2019-06-20T14:30:27.793Z,536
2019-06-20T14:31:35.016Z,536
2019-06-20T14:32:44.131Z,540
2019-06-20T14:33:51.742Z,541
2019-06-20T14:34:59.019Z,543
2019-06-20T14:36:05.990Z,543
2019-06-20T14:37:13.223Z,541
2019-06-20T14:38:20.719Z,541
2019-06-20T14:39:27.955Z,543
2019-06-20T14:40:35.203Z,544
2019-06-20T14:41:46.338Z,545
2019-06-20T14:42:54.885Z,543
2019-06-20T14:44:02.124Z,542
2019-06-20T14:45:09.384Z,541
2019-06-20T14:46:16.656Z,539
2019-06-20T14:47:23.891Z,539
2019-06-20T14:48:31.134Z,541
2019-06-20T14:49:38.361Z,542
2019-06-20T14:50:51.246Z,541
2019-06-20T14:52:00.149Z,541
2019-06-20T14:53:07.152Z,544
2019-06-20T14:54:14.430Z,545
2019-06-20T14:55:21.396Z,546
2019-06-20T14:56:28.617Z,545
2019-06-20T14:57:35.864Z,546
2019-06-20T14:58:47.170Z,545
2019-06-20T14:59:55.487Z,545
2019-06-20T15:01:02.735Z,543
2019-06-20T15:02:10.002Z,544
2019-06-20T15:03:17.251Z,545
2019-06-20T15:04:24.488Z,545
2019-06-20T15:05:35.306Z,544
2019-06-20T15:06:44.890Z,543
2019-06-20T15:07:56.467Z,542
2019-06-20T15:09:07.002Z,543
2019-06-20T15:10:13.960Z,543
2019-06-20T15:11:21.213Z,543
2019-06-20T15:12:28.190Z,543
2019-06-20T15:13:35.161Z,544
2019-06-20T15:14:42.379Z,545
2019-06-20T15:15:51.635Z,544
2019-06-20T15:16:59.930Z,545
2019-06-20T15:18:07.174Z,546
2019-06-20T15:19:13.847Z,546
2019-06-20T15:20:20.545Z,546
2019-06-20T15:21:27.497Z,547
2019-06-20T15:22:34.736Z,547
2019-06-20T15:23:41.956Z,547
2019-06-20T15:24:57.052Z,547
2019-06-20T15:26:04.399Z,548
2019-06-20T15:27:11.634Z,548
2019-06-20T15:28:18.591Z,548
2019-06-20T15:29:25.561Z,546
2019-06-20T15:30:32.813Z,547
2019-06-20T15:31:40.068Z,545
2019-06-20T15:33:25.572Z,543